sensor_id;sensor_type;location;lat;lon;timestamp;P1;durP1;ratioP1;P2;durP2;ratioP2
42768;SDS011;28423;60.010;30.406;2022-07-05T00:00:56;19.95;;;7.78;;
42768;SDS011;28423;60.010;30.406;2022-07-05T00:03:22;16.23;;;6.72;;
42768;SDS011;28423;60.010;30.406;2022-07-05T00:05:47;21.63;;;6.75;;
42768;SDS011;28423;60.010;30.406;2022-07-05T00:08:13;16.85;;;6.38;;
42768;SDS011;28423;60.010;30.406;2022-07-05T00:10:40;22.63;;;7.32;;
42768;SDS011;28423;60.010;30.406;2022-07-05T00:13:06;24.55;;;6.40;;
42768;SDS011;28423;60.010;30.406;2022-07-05T00:15:32;14.93;;;6.60;;
42768;SDS011;28423;60.010;30.406;2022-07-05T00:17:58;12.85;;;5.32;;
42768;SDS011;28423;60.010;30.406;2022-07-05T00:20:23;30.15;;;6.97;;
42768;SDS011;28423;60.010;30.406;2022-07-05T00:22:49;13.70;;;5.90;;
42768;SDS011;28423;60.010;30.406;2022-07-05T00:25:15;21.58;;;6.40;;
42768;SDS011;28423;60.010;30.406;2022-07-05T00:27:41;19.17;;;6.45;;
42768;SDS011;28423;60.010;30.406;2022-07-05T00:30:07;22.50;;;7.07;;
42768;SDS011;28423;60.010;30.406;2022-07-05T00:32:34;20.58;;;6.45;;
42768;SDS011;28423;60.010;30.406;2022-07-05T00:35:00;30.60;;;6.97;;
42768;SDS011;28423;60.010;30.406;2022-07-05T00:37:25;28.05;;;7.45;;
42768;SDS011;28423;60.010;30.406;2022-07-05T00:39:51;22.77;;;6.10;;
42768;SDS011;28423;60.010;30.406;2022-07-05T00:42:17;26.80;;;6.60;;
42768;SDS011;28423;60.010;30.406;2022-07-05T00:44:43;23.33;;;6.80;;
42768;SDS011;28423;60.010;30.406;2022-07-05T00:47:09;25.77;;;5.93;;
42768;SDS011;28423;60.010;30.406;2022-07-05T00:49:37;19.40;;;7.70;;
42768;SDS011;28423;60.010;30.406;2022-07-05T00:52:04;17.50;;;7.05;;
42768;SDS011;28423;60.010;30.406;2022-07-05T00:54:33;18.98;;;6.47;;
42768;SDS011;28423;60.010;30.406;2022-07-05T00:57:00;22.02;;;6.00;;
42768;SDS011;28423;60.010;30.406;2022-07-05T00:59:26;20.20;;;5.97;;
42768;SDS011;28423;60.010;30.406;2022-07-05T01:01:53;29.38;;;6.13;;
42768;SDS011;28423;60.010;30.406;2022-07-05T01:04:18;15.13;;;6.00;;
42768;SDS011;28423;60.010;30.406;2022-07-05T01:06:45;32.58;;;6.13;;
42768;SDS011;28423;60.010;30.406;2022-07-05T01:09:12;16.85;;;5.65;;
42768;SDS011;28423;60.010;30.406;2022-07-05T01:11:38;16.48;;;6.38;;
42768;SDS011;28423;60.010;30.406;2022-07-05T01:14:05;15.23;;;6.18;;
42768;SDS011;28423;60.010;30.406;2022-07-05T01:16:39;13.45;;;5.35;;
42768;SDS011;28423;60.010;30.406;2022-07-05T01:19:05;18.25;;;6.65;;
42768;SDS011;28423;60.010;30.406;2022-07-05T01:21:32;16.52;;;6.15;;
42768;SDS011;28423;60.010;30.406;2022-07-05T01:23:59;17.02;;;6.30;;
42768;SDS011;28423;60.010;30.406;2022-07-05T01:26:25;19.48;;;6.45;;
42768;SDS011;28423;60.010;30.406;2022-07-05T01:28:51;16.90;;;6.18;;
42768;SDS011;28423;60.010;30.406;2022-07-05T01:31:17;20.15;;;6.60;;
42768;SDS011;28423;60.010;30.406;2022-07-05T01:33:42;27.58;;;6.45;;
42768;SDS011;28423;60.010;30.406;2022-07-05T01:36:10;25.30;;;7.22;;
42768;SDS011;28423;60.010;30.406;2022-07-05T01:38:36;16.92;;;6.00;;
42768;SDS011;28423;60.010;30.406;2022-07-05T01:41:02;19.13;;;5.88;;
42768;SDS011;28423;60.010;30.406;2022-07-05T01:43:28;16.02;;;5.50;;
42768;SDS011;28423;60.010;30.406;2022-07-05T01:45:54;15.32;;;6.65;;
42768;SDS011;28423;60.010;30.406;2022-07-05T01:48:19;16.55;;;6.18;;
42768;SDS011;28423;60.010;30.406;2022-07-05T01:51:06;11.07;;;5.40;;
42768;SDS011;28423;60.010;30.406;2022-07-05T01:53:35;32.83;;;8.80;;
42768;SDS011;28423;60.010;30.406;2022-07-05T01:56:01;22.10;;;6.88;;
42768;SDS011;28423;60.010;30.406;2022-07-05T01:58:28;20.20;;;7.15;;
42768;SDS011;28423;60.010;30.406;2022-07-05T02:00:55;15.55;;;5.75;;
42768;SDS011;28423;60.010;30.406;2022-07-05T02:03:24;16.98;;;5.70;;
42768;SDS011;28423;60.010;30.406;2022-07-05T02:05:52;19.02;;;5.97;;
42768;SDS011;28423;60.010;30.406;2022-07-05T02:08:20;20.23;;;7.22;;
42768;SDS011;28423;60.010;30.406;2022-07-05T02:10:45;15.57;;;6.20;;
42768;SDS011;28423;60.010;30.406;2022-07-05T02:13:11;15.70;;;6.50;;
42768;SDS011;28423;60.010;30.406;2022-07-05T02:15:38;20.95;;;7.43;;
42768;SDS011;28423;60.010;30.406;2022-07-05T02:18:06;11.27;;;6.03;;
42768;SDS011;28423;60.010;30.406;2022-07-05T02:20:34;19.35;;;7.40;;
42768;SDS011;28423;60.010;30.406;2022-07-05T02:23:00;13.50;;;6.50;;
42768;SDS011;28423;60.010;30.406;2022-07-05T02:25:27;12.13;;;5.90;;
42768;SDS011;28423;60.010;30.406;2022-07-05T02:27:55;14.77;;;5.70;;
42768;SDS011;28423;60.010;30.406;2022-07-05T02:30:21;11.63;;;6.50;;
42768;SDS011;28423;60.010;30.406;2022-07-05T02:32:47;13.38;;;5.47;;
42768;SDS011;28423;60.010;30.406;2022-07-05T02:35:13;10.52;;;4.93;;
42768;SDS011;28423;60.010;30.406;2022-07-05T02:37:39;7.57;;;3.53;;
42768;SDS011;28423;60.010;30.406;2022-07-05T02:40:07;6.80;;;4.47;;
42768;SDS011;28423;60.010;30.406;2022-07-05T02:42:38;11.52;;;5.60;;
42768;SDS011;28423;60.010;30.406;2022-07-05T02:45:06;9.23;;;4.75;;
42768;SDS011;28423;60.010;30.406;2022-07-05T02:47:33;11.05;;;5.00;;
42768;SDS011;28423;60.010;30.406;2022-07-05T02:50:07;8.00;;;4.80;;
42768;SDS011;28423;60.010;30.406;2022-07-05T02:52:37;9.05;;;5.28;;
42768;SDS011;28423;60.010;30.406;2022-07-05T02:55:04;9.85;;;4.55;;
42768;SDS011;28423;60.010;30.406;2022-07-05T02:57:30;10.10;;;4.35;;
42768;SDS011;28423;60.010;30.406;2022-07-05T02:59:58;14.45;;;6.80;;
42768;SDS011;28423;60.010;30.406;2022-07-05T03:02:33;11.13;;;7.07;;
42768;SDS011;28423;60.010;30.406;2022-07-05T03:05:00;12.25;;;6.45;;
42768;SDS011;28423;60.010;30.406;2022-07-05T03:07:26;8.45;;;6.65;;
42768;SDS011;28423;60.010;30.406;2022-07-05T03:09:52;9.05;;;6.28;;
42768;SDS011;28423;60.010;30.406;2022-07-05T03:12:18;12.63;;;6.43;;
42768;SDS011;28423;60.010;30.406;2022-07-05T03:14:45;16.10;;;8.05;;
42768;SDS011;28423;60.010;30.406;2022-07-05T03:17:11;17.65;;;8.23;;
42768;SDS011;28423;60.010;30.406;2022-07-05T03:19:37;13.80;;;8.05;;
42768;SDS011;28423;60.010;30.406;2022-07-05T03:22:05;17.60;;;8.95;;
42768;SDS011;28423;60.010;30.406;2022-07-05T03:24:33;13.73;;;8.82;;
42768;SDS011;28423;60.010;30.406;2022-07-05T03:26:58;10.45;;;7.97;;
42768;SDS011;28423;60.010;30.406;2022-07-05T03:29:24;12.68;;;8.98;;
42768;SDS011;28423;60.010;30.406;2022-07-05T03:31:52;14.82;;;8.80;;
42768;SDS011;28423;60.010;30.406;2022-07-05T03:34:18;15.30;;;7.70;;
42768;SDS011;28423;60.010;30.406;2022-07-05T03:36:44;11.07;;;7.05;;
42768;SDS011;28423;60.010;30.406;2022-07-05T03:39:14;10.57;;;7.60;;
42768;SDS011;28423;60.010;30.406;2022-07-05T03:41:41;11.45;;;8.35;;
42768;SDS011;28423;60.010;30.406;2022-07-05T03:44:08;11.25;;;7.82;;
42768;SDS011;28423;60.010;30.406;2022-07-05T03:46:34;8.30;;;6.60;;
42768;SDS011;28423;60.010;30.406;2022-07-05T03:49:00;11.50;;;7.63;;
42768;SDS011;28423;60.010;30.406;2022-07-05T03:51:26;11.82;;;7.72;;
42768;SDS011;28423;60.010;30.406;2022-07-05T03:53:54;10.70;;;7.70;;
42768;SDS011;28423;60.010;30.406;2022-07-05T03:56:21;9.73;;;6.85;;
42768;SDS011;28423;60.010;30.406;2022-07-05T03:58:50;8.88;;;6.45;;
42768;SDS011;28423;60.010;30.406;2022-07-05T04:01:16;13.15;;;7.93;;
42768;SDS011;28423;60.010;30.406;2022-07-05T04:03:43;15.02;;;6.90;;
42768;SDS011;28423;60.010;30.406;2022-07-05T04:06:11;10.00;;;7.53;;
42768;SDS011;28423;60.010;30.406;2022-07-05T04:08:38;9.85;;;6.88;;
42768;SDS011;28423;60.010;30.406;2022-07-05T04:11:04;9.35;;;7.55;;
42768;SDS011;28423;60.010;30.406;2022-07-05T04:13:32;12.40;;;7.35;;
42768;SDS011;28423;60.010;30.406;2022-07-05T04:15:58;11.20;;;7.40;;
42768;SDS011;28423;60.010;30.406;2022-07-05T04:18:23;11.57;;;6.90;;
42768;SDS011;28423;60.010;30.406;2022-07-05T04:20:50;9.15;;;6.63;;
42768;SDS011;28423;60.010;30.406;2022-07-05T04:23:16;13.32;;;6.10;;
42768;SDS011;28423;60.010;30.406;2022-07-05T04:25:43;12.45;;;7.63;;
42768;SDS011;28423;60.010;30.406;2022-07-05T04:28:15;10.65;;;7.13;;
42768;SDS011;28423;60.010;30.406;2022-07-05T04:30:42;8.82;;;7.18;;
42768;SDS011;28423;60.010;30.406;2022-07-05T04:33:10;11.73;;;7.70;;
42768;SDS011;28423;60.010;30.406;2022-07-05T04:35:37;11.38;;;8.63;;
42768;SDS011;28423;60.010;30.406;2022-07-05T04:38:03;11.05;;;8.52;;
42768;SDS011;28423;60.010;30.406;2022-07-05T04:40:30;9.55;;;8.60;;
42768;SDS011;28423;60.010;30.406;2022-07-05T04:42:56;11.45;;;8.05;;
42768;SDS011;28423;60.010;30.406;2022-07-05T04:45:23;9.68;;;8.05;;
42768;SDS011;28423;60.010;30.406;2022-07-05T04:47:49;9.18;;;7.07;;
42768;SDS011;28423;60.010;30.406;2022-07-05T04:50:15;13.20;;;8.10;;
42768;SDS011;28423;60.010;30.406;2022-07-05T04:52:41;8.98;;;6.65;;
42768;SDS011;28423;60.010;30.406;2022-07-05T04:55:07;9.88;;;7.10;;
42768;SDS011;28423;60.010;30.406;2022-07-05T04:57:37;11.05;;;6.80;;
42768;SDS011;28423;60.010;30.406;2022-07-05T05:00:07;8.70;;;7.15;;
42768;SDS011;28423;60.010;30.406;2022-07-05T05:02:33;10.18;;;8.30;;
42768;SDS011;28423;60.010;30.406;2022-07-05T05:04:59;10.35;;;7.63;;
42768;SDS011;28423;60.010;30.406;2022-07-05T05:07:25;10.57;;;7.88;;
42768;SDS011;28423;60.010;30.406;2022-07-05T05:09:51;8.10;;;7.20;;
42768;SDS011;28423;60.010;30.406;2022-07-05T05:12:17;10.43;;;7.80;;
42768;SDS011;28423;60.010;30.406;2022-07-05T05:14:42;12.05;;;7.72;;
42768;SDS011;28423;60.010;30.406;2022-07-05T05:17:08;10.32;;;7.43;;
42768;SDS011;28423;60.010;30.406;2022-07-05T05:19:33;11.35;;;7.65;;
42768;SDS011;28423;60.010;30.406;2022-07-05T05:21:59;10.88;;;7.65;;
42768;SDS011;28423;60.010;30.406;2022-07-05T05:24:25;9.90;;;7.15;;
42768;SDS011;28423;60.010;30.406;2022-07-05T05:26:50;9.65;;;7.10;;
42768;SDS011;28423;60.010;30.406;2022-07-05T05:29:17;11.82;;;8.43;;
42768;SDS011;28423;60.010;30.406;2022-07-05T05:31:43;9.40;;;7.10;;
42768;SDS011;28423;60.010;30.406;2022-07-05T05:34:08;11.95;;;8.25;;
42768;SDS011;28423;60.010;30.406;2022-07-05T05:36:34;9.10;;;8.15;;
42768;SDS011;28423;60.010;30.406;2022-07-05T05:38:59;14.48;;;8.00;;
42768;SDS011;28423;60.010;30.406;2022-07-05T05:41:25;11.05;;;8.45;;
42768;SDS011;28423;60.010;30.406;2022-07-05T05:43:51;13.95;;;8.00;;
42768;SDS011;28423;60.010;30.406;2022-07-05T05:46:16;15.68;;;10.10;;
42768;SDS011;28423;60.010;30.406;2022-07-05T05:48:42;12.13;;;9.27;;
42768;SDS011;28423;60.010;30.406;2022-07-05T05:51:07;14.75;;;9.30;;
42768;SDS011;28423;60.010;30.406;2022-07-05T05:53:33;12.15;;;9.25;;
42768;SDS011;28423;60.010;30.406;2022-07-05T05:55:59;10.82;;;9.23;;
42768;SDS011;28423;60.010;30.406;2022-07-05T05:58:24;15.15;;;9.80;;
42768;SDS011;28423;60.010;30.406;2022-07-05T06:00:50;16.98;;;9.32;;
42768;SDS011;28423;60.010;30.406;2022-07-05T06:03:19;13.40;;;9.40;;
42768;SDS011;28423;60.010;30.406;2022-07-05T06:05:46;11.63;;;9.27;;
42768;SDS011;28423;60.010;30.406;2022-07-05T06:08:12;12.23;;;9.35;;
42768;SDS011;28423;60.010;30.406;2022-07-05T06:10:37;11.70;;;9.13;;
42768;SDS011;28423;60.010;30.406;2022-07-05T06:13:04;10.80;;;8.48;;
42768;SDS011;28423;60.010;30.406;2022-07-05T06:15:31;11.60;;;8.13;;
42768;SDS011;28423;60.010;30.406;2022-07-05T06:17:57;15.25;;;8.45;;
42768;SDS011;28423;60.010;30.406;2022-07-05T06:20:24;14.25;;;8.35;;
42768;SDS011;28423;60.010;30.406;2022-07-05T06:22:51;12.68;;;9.82;;
42768;SDS011;28423;60.010;30.406;2022-07-05T06:25:18;11.95;;;10.30;;
42768;SDS011;28423;60.010;30.406;2022-07-05T06:27:45;12.55;;;9.32;;
42768;SDS011;28423;60.010;30.406;2022-07-05T06:30:15;12.68;;;8.48;;
42768;SDS011;28423;60.010;30.406;2022-07-05T06:32:42;14.32;;;9.20;;
42768;SDS011;28423;60.010;30.406;2022-07-05T06:35:09;12.57;;;9.07;;
42768;SDS011;28423;60.010;30.406;2022-07-05T06:40:14;10.93;;;8.25;;
42768;SDS011;28423;60.010;30.406;2022-07-05T06:42:42;11.88;;;8.90;;
42768;SDS011;28423;60.010;30.406;2022-07-05T06:45:09;12.27;;;8.30;;
42768;SDS011;28423;60.010;30.406;2022-07-05T06:47:35;19.98;;;15.30;;
42768;SDS011;28423;60.010;30.406;2022-07-05T06:50:01;13.45;;;8.85;;
42768;SDS011;28423;60.010;30.406;2022-07-05T06:52:30;9.65;;;8.65;;
42768;SDS011;28423;60.010;30.406;2022-07-05T06:55:00;12.00;;;9.55;;
42768;SDS011;28423;60.010;30.406;2022-07-05T06:57:26;11.88;;;9.38;;
42768;SDS011;28423;60.010;30.406;2022-07-05T06:59:52;15.48;;;10.45;;
42768;SDS011;28423;60.010;30.406;2022-07-05T07:02:18;8.68;;;7.20;;
42768;SDS011;28423;60.010;30.406;2022-07-05T07:04:44;8.75;;;6.57;;
42768;SDS011;28423;60.010;30.406;2022-07-05T07:07:10;11.68;;;5.97;;
42768;SDS011;28423;60.010;30.406;2022-07-05T07:09:58;29.90;;;6.80;;
42768;SDS011;28423;60.010;30.406;2022-07-05T07:12:24;11.63;;;5.47;;
42768;SDS011;28423;60.010;30.406;2022-07-05T07:14:50;7.80;;;5.55;;
42768;SDS011;28423;60.010;30.406;2022-07-05T07:17:16;7.50;;;4.93;;
42768;SDS011;28423;60.010;30.406;2022-07-05T07:19:41;8.20;;;6.25;;
42768;SDS011;28423;60.010;30.406;2022-07-05T07:22:07;10.57;;;7.45;;
42768;SDS011;28423;60.010;30.406;2022-07-05T07:24:32;11.52;;;6.85;;
42768;SDS011;28423;60.010;30.406;2022-07-05T07:27:16;9.15;;;6.60;;
42768;SDS011;28423;60.010;30.406;2022-07-05T07:29:42;22.08;;;8.05;;
42768;SDS011;28423;60.010;30.406;2022-07-05T07:32:08;10.73;;;7.22;;
42768;SDS011;28423;60.010;30.406;2022-07-05T07:34:34;14.23;;;7.95;;
42768;SDS011;28423;60.010;30.406;2022-07-05T07:37:00;11.68;;;7.45;;
42768;SDS011;28423;60.010;30.406;2022-07-05T07:39:26;9.43;;;7.53;;
42768;SDS011;28423;60.010;30.406;2022-07-05T07:41:52;8.98;;;6.63;;
42768;SDS011;28423;60.010;30.406;2022-07-05T07:44:18;11.70;;;6.38;;
42768;SDS011;28423;60.010;30.406;2022-07-05T07:46:43;13.63;;;6.15;;
42768;SDS011;28423;60.010;30.406;2022-07-05T07:49:09;10.13;;;7.65;;
42768;SDS011;28423;60.010;30.406;2022-07-05T07:51:36;16.35;;;8.18;;
42768;SDS011;28423;60.010;30.406;2022-07-05T07:54:02;11.90;;;7.85;;
42768;SDS011;28423;60.010;30.406;2022-07-05T07:56:28;8.55;;;6.50;;
42768;SDS011;28423;60.010;30.406;2022-07-05T07:58:54;10.88;;;6.20;;
42768;SDS011;28423;60.010;30.406;2022-07-05T08:01:20;7.40;;;6.25;;
42768;SDS011;28423;60.010;30.406;2022-07-05T08:03:45;9.30;;;7.32;;
42768;SDS011;28423;60.010;30.406;2022-07-05T08:06:11;11.85;;;7.57;;
42768;SDS011;28423;60.010;30.406;2022-07-05T08:08:37;10.15;;;6.88;;
42768;SDS011;28423;60.010;30.406;2022-07-05T08:11:04;13.18;;;7.50;;
42768;SDS011;28423;60.010;30.406;2022-07-05T08:13:31;10.57;;;6.03;;
42768;SDS011;28423;60.010;30.406;2022-07-05T08:15:56;7.65;;;5.57;;
42768;SDS011;28423;60.010;30.406;2022-07-05T08:18:23;5.72;;;4.05;;
42768;SDS011;28423;60.010;30.406;2022-07-05T08:21:07;10.23;;;4.60;;
42768;SDS011;28423;60.010;30.406;2022-07-05T08:23:52;8.68;;;4.03;;
42768;SDS011;28423;60.010;30.406;2022-07-05T08:26:18;8.00;;;4.70;;
42768;SDS011;28423;60.010;30.406;2022-07-05T08:28:44;7.68;;;5.20;;
42768;SDS011;28423;60.010;30.406;2022-07-05T08:31:09;5.75;;;5.15;;
42768;SDS011;28423;60.010;30.406;2022-07-05T08:33:35;7.20;;;4.78;;
42768;SDS011;28423;60.010;30.406;2022-07-05T08:36:01;5.20;;;4.22;;
42768;SDS011;28423;60.010;30.406;2022-07-05T08:38:26;16.55;;;4.88;;
42768;SDS011;28423;60.010;30.406;2022-07-05T08:40:54;7.97;;;4.38;;
42768;SDS011;28423;60.010;30.406;2022-07-05T08:43:24;6.97;;;3.85;;
42768;SDS011;28423;60.010;30.406;2022-07-05T08:45:51;7.53;;;4.75;;
42768;SDS011;28423;60.010;30.406;2022-07-05T08:48:18;9.70;;;5.95;;
42768;SDS011;28423;60.010;30.406;2022-07-05T08:50:45;6.88;;;3.78;;
42768;SDS011;28423;60.010;30.406;2022-07-05T08:53:14;4.18;;;3.13;;
42768;SDS011;28423;60.010;30.406;2022-07-05T08:55:40;6.05;;;3.80;;
42768;SDS011;28423;60.010;30.406;2022-07-05T08:58:06;7.60;;;4.00;;
42768;SDS011;28423;60.010;30.406;2022-07-05T09:00:32;5.35;;;3.72;;
42768;SDS011;28423;60.010;30.406;2022-07-05T09:02:58;6.32;;;2.80;;
42768;SDS011;28423;60.010;30.406;2022-07-05T09:05:24;6.68;;;5.00;;
42768;SDS011;28423;60.010;30.406;2022-07-05T09:07:59;5.82;;;3.58;;
42768;SDS011;28423;60.010;30.406;2022-07-05T09:10:26;6.05;;;3.42;;
42768;SDS011;28423;60.010;30.406;2022-07-05T09:12:54;7.35;;;3.80;;
42768;SDS011;28423;60.010;30.406;2022-07-05T09:15:19;8.23;;;3.28;;
42768;SDS011;28423;60.010;30.406;2022-07-05T09:17:45;5.13;;;3.38;;
42768;SDS011;28423;60.010;30.406;2022-07-05T09:20:12;6.72;;;3.35;;
42768;SDS011;28423;60.010;30.406;2022-07-05T09:22:42;4.35;;;3.25;;
42768;SDS011;28423;60.010;30.406;2022-07-05T09:27:57;5.65;;;3.28;;
42768;SDS011;28423;60.010;30.406;2022-07-05T09:30:34;4.50;;;2.90;;
42768;SDS011;28423;60.010;30.406;2022-07-05T09:35:35;4.13;;;3.30;;
42768;SDS011;28423;60.010;30.406;2022-07-05T09:38:03;5.88;;;3.35;;
42768;SDS011;28423;60.010;30.406;2022-07-05T09:40:33;5.90;;;3.70;;
42768;SDS011;28423;60.010;30.406;2022-07-05T09:43:15;4.57;;;3.03;;
42768;SDS011;28423;60.010;30.406;2022-07-05T09:46:01;6.13;;;2.65;;
42768;SDS011;28423;60.010;30.406;2022-07-05T09:48:29;4.50;;;3.05;;
42768;SDS011;28423;60.010;30.406;2022-07-05T09:51:12;4.85;;;2.60;;
42768;SDS011;28423;60.010;30.406;2022-07-05T09:53:44;7.15;;;2.53;;
42768;SDS011;28423;60.010;30.406;2022-07-05T09:56:11;8.85;;;3.30;;
42768;SDS011;28423;60.010;30.406;2022-07-05T09:58:37;7.68;;;3.63;;
42768;SDS011;28423;60.010;30.406;2022-07-05T10:01:11;3.20;;;2.83;;
42768;SDS011;28423;60.010;30.406;2022-07-05T10:03:51;8.18;;;3.30;;
42768;SDS011;28423;60.010;30.406;2022-07-05T10:06:38;8.30;;;3.08;;
42768;SDS011;28423;60.010;30.406;2022-07-05T10:09:04;8.38;;;3.00;;
42768;SDS011;28423;60.010;30.406;2022-07-05T10:11:30;5.63;;;2.67;;
42768;SDS011;28423;60.010;30.406;2022-07-05T10:13:56;3.05;;;2.72;;
42768;SDS011;28423;60.010;30.406;2022-07-05T10:16:23;6.85;;;3.08;;
42768;SDS011;28423;60.010;30.406;2022-07-05T10:18:55;5.60;;;3.03;;
42768;SDS011;28423;60.010;30.406;2022-07-05T10:23:48;5.30;;;2.22;;
42768;SDS011;28423;60.010;30.406;2022-07-05T10:26:16;3.38;;;2.67;;
42768;SDS011;28423;60.010;30.406;2022-07-05T10:28:46;3.40;;;2.45;;
42768;SDS011;28423;60.010;30.406;2022-07-05T10:31:14;6.05;;;3.00;;
42768;SDS011;28423;60.010;30.406;2022-07-05T10:33:40;5.05;;;2.80;;
42768;SDS011;28423;60.010;30.406;2022-07-05T10:36:06;4.00;;;2.85;;
42768;SDS011;28423;60.010;30.406;2022-07-05T10:38:44;6.50;;;2.40;;
42768;SDS011;28423;60.010;30.406;2022-07-05T10:41:13;5.85;;;2.40;;
42768;SDS011;28423;60.010;30.406;2022-07-05T10:43:40;4.95;;;3.42;;
42768;SDS011;28423;60.010;30.406;2022-07-05T10:46:05;3.90;;;2.78;;
42768;SDS011;28423;60.010;30.406;2022-07-05T10:48:33;6.75;;;3.50;;
42768;SDS011;28423;60.010;30.406;2022-07-05T10:51:00;3.80;;;2.85;;
42768;SDS011;28423;60.010;30.406;2022-07-05T11:03:41;4.22;;;2.75;;
42768;SDS011;28423;60.010;30.406;2022-07-05T11:06:08;6.18;;;2.90;;
42768;SDS011;28423;60.010;30.406;2022-07-05T11:11:46;4.40;;;2.95;;
42768;SDS011;28423;60.010;30.406;2022-07-05T11:16:44;5.10;;;2.92;;
42768;SDS011;28423;60.010;30.406;2022-07-05T11:19:17;5.30;;;2.45;;
42768;SDS011;28423;60.010;30.406;2022-07-05T11:22:04;5.30;;;3.85;;
42768;SDS011;28423;60.010;30.406;2022-07-05T11:24:34;3.85;;;3.00;;
42768;SDS011;28423;60.010;30.406;2022-07-05T11:27:02;4.40;;;3.30;;
42768;SDS011;28423;60.010;30.406;2022-07-05T11:34:36;6.07;;;3.58;;
42768;SDS011;28423;60.010;30.406;2022-07-05T11:37:21;4.30;;;3.08;;
42768;SDS011;28423;60.010;30.406;2022-07-05T11:42:35;5.35;;;2.83;;
42768;SDS011;28423;60.010;30.406;2022-07-05T11:45:07;4.88;;;3.30;;
42768;SDS011;28423;60.010;30.406;2022-07-05T11:47:34;4.47;;;3.22;;
42768;SDS011;28423;60.010;30.406;2022-07-05T11:50:00;4.25;;;3.30;;
42768;SDS011;28423;60.010;30.406;2022-07-05T11:52:29;5.75;;;3.33;;
42768;SDS011;28423;60.010;30.406;2022-07-05T11:54:57;4.40;;;3.25;;
42768;SDS011;28423;60.010;30.406;2022-07-05T11:57:23;8.27;;;3.35;;
42768;SDS011;28423;60.010;30.406;2022-07-05T11:59:49;5.60;;;3.00;;
42768;SDS011;28423;60.010;30.406;2022-07-05T12:02:15;5.82;;;3.25;;
42768;SDS011;28423;60.010;30.406;2022-07-05T12:04:46;7.20;;;3.60;;
42768;SDS011;28423;60.010;30.406;2022-07-05T12:07:12;5.13;;;3.33;;
42768;SDS011;28423;60.010;30.406;2022-07-05T12:09:37;7.57;;;3.97;;
42768;SDS011;28423;60.010;30.406;2022-07-05T12:12:25;11.50;;;4.55;;
42768;SDS011;28423;60.010;30.406;2022-07-05T12:17:35;8.32;;;4.68;;
42768;SDS011;28423;60.010;30.406;2022-07-05T12:20:02;5.13;;;3.15;;
42768;SDS011;28423;60.010;30.406;2022-07-05T12:22:35;4.53;;;3.20;;
42768;SDS011;28423;60.010;30.406;2022-07-05T12:25:03;6.95;;;3.05;;
42768;SDS011;28423;60.010;30.406;2022-07-05T12:27:30;4.00;;;3.03;;
42768;SDS011;28423;60.010;30.406;2022-07-05T12:29:57;3.88;;;2.92;;
42768;SDS011;28423;60.010;30.406;2022-07-05T12:32:23;6.97;;;3.30;;
42768;SDS011;28423;60.010;30.406;2022-07-05T12:34:48;7.45;;;3.50;;
42768;SDS011;28423;60.010;30.406;2022-07-05T12:37:21;5.38;;;3.70;;
42768;SDS011;28423;60.010;30.406;2022-07-05T12:39:50;6.85;;;5.22;;
42768;SDS011;28423;60.010;30.406;2022-07-05T12:42:31;7.93;;;3.92;;
42768;SDS011;28423;60.010;30.406;2022-07-05T12:45:09;5.30;;;3.60;;
42768;SDS011;28423;60.010;30.406;2022-07-05T12:47:53;4.82;;;3.42;;
42768;SDS011;28423;60.010;30.406;2022-07-05T12:50:27;5.75;;;3.47;;
42768;SDS011;28423;60.010;30.406;2022-07-05T12:53:03;6.75;;;3.42;;
42768;SDS011;28423;60.010;30.406;2022-07-05T12:55:49;7.03;;;3.40;;
42768;SDS011;28423;60.010;30.406;2022-07-05T12:58:47;5.82;;;3.70;;
42768;SDS011;28423;60.010;30.406;2022-07-05T13:01:18;4.80;;;3.30;;
42768;SDS011;28423;60.010;30.406;2022-07-05T13:12:16;5.57;;;3.95;;
42768;SDS011;28423;60.010;30.406;2022-07-05T13:14:50;5.78;;;4.10;;
42768;SDS011;28423;60.010;30.406;2022-07-05T13:17:17;4.15;;;3.45;;
42768;SDS011;28423;60.010;30.406;2022-07-05T13:19:44;7.15;;;4.00;;
42768;SDS011;28423;60.010;30.406;2022-07-05T13:22:11;6.82;;;3.80;;
42768;SDS011;28423;60.010;30.406;2022-07-05T13:24:37;6.18;;;3.72;;
42768;SDS011;28423;60.010;30.406;2022-07-05T13:27:03;5.15;;;3.50;;
42768;SDS011;28423;60.010;30.406;2022-07-05T13:29:30;10.20;;;4.03;;
42768;SDS011;28423;60.010;30.406;2022-07-05T13:31:56;6.78;;;4.40;;
42768;SDS011;28423;60.010;30.406;2022-07-05T13:34:22;4.45;;;3.72;;
42768;SDS011;28423;60.010;30.406;2022-07-05T13:36:51;9.00;;;5.45;;
42768;SDS011;28423;60.010;30.406;2022-07-05T13:39:17;8.23;;;4.05;;
42768;SDS011;28423;60.010;30.406;2022-07-05T13:41:44;5.20;;;3.72;;
42768;SDS011;28423;60.010;30.406;2022-07-05T13:44:10;6.00;;;4.15;;
42768;SDS011;28423;60.010;30.406;2022-07-05T13:46:36;4.57;;;3.88;;
42768;SDS011;28423;60.010;30.406;2022-07-05T13:49:01;8.98;;;4.88;;
42768;SDS011;28423;60.010;30.406;2022-07-05T13:51:27;11.68;;;4.70;;
42768;SDS011;28423;60.010;30.406;2022-07-05T13:53:53;6.53;;;4.97;;
42768;SDS011;28423;60.010;30.406;2022-07-05T13:56:18;5.78;;;4.05;;
42768;SDS011;28423;60.010;30.406;2022-07-05T13:58:44;5.00;;;4.50;;
42768;SDS011;28423;60.010;30.406;2022-07-05T14:01:10;8.55;;;4.00;;
42768;SDS011;28423;60.010;30.406;2022-07-05T14:03:36;6.18;;;3.60;;
42768;SDS011;28423;60.010;30.406;2022-07-05T14:06:01;4.35;;;3.20;;
42768;SDS011;28423;60.010;30.406;2022-07-05T14:08:27;7.43;;;3.22;;
42768;SDS011;28423;60.010;30.406;2022-07-05T14:10:54;5.07;;;3.20;;
42768;SDS011;28423;60.010;30.406;2022-07-05T14:13:21;5.90;;;2.63;;
42768;SDS011;28423;60.010;30.406;2022-07-05T14:15:48;9.23;;;2.40;;
42768;SDS011;28423;60.010;30.406;2022-07-05T14:18:14;4.78;;;2.35;;
42768;SDS011;28423;60.010;30.406;2022-07-05T14:20:41;5.43;;;2.20;;
42768;SDS011;28423;60.010;30.406;2022-07-05T14:23:10;6.90;;;2.70;;
42768;SDS011;28423;60.010;30.406;2022-07-05T14:25:36;5.65;;;3.08;;
42768;SDS011;28423;60.010;30.406;2022-07-05T14:28:03;4.55;;;2.90;;
42768;SDS011;28423;60.010;30.406;2022-07-05T14:30:33;7.50;;;4.38;;
42768;SDS011;28423;60.010;30.406;2022-07-05T14:32:59;7.47;;;3.58;;
42768;SDS011;28423;60.010;30.406;2022-07-05T14:35:25;8.00;;;3.08;;
42768;SDS011;28423;60.010;30.406;2022-07-05T14:37:52;7.32;;;3.13;;
42768;SDS011;28423;60.010;30.406;2022-07-05T14:40:17;12.93;;;5.60;;
42768;SDS011;28423;60.010;30.406;2022-07-05T14:42:44;6.80;;;3.72;;
42768;SDS011;28423;60.010;30.406;2022-07-05T14:45:10;4.65;;;3.42;;
42768;SDS011;28423;60.010;30.406;2022-07-05T14:47:36;7.97;;;5.80;;
42768;SDS011;28423;60.010;30.406;2022-07-05T14:50:02;4.38;;;3.13;;
42768;SDS011;28423;60.010;30.406;2022-07-05T14:52:29;7.82;;;2.60;;
42768;SDS011;28423;60.010;30.406;2022-07-05T14:54:55;4.50;;;2.95;;
42768;SDS011;28423;60.010;30.406;2022-07-05T14:57:21;6.45;;;2.70;;
42768;SDS011;28423;60.010;30.406;2022-07-05T14:59:47;5.35;;;2.30;;
42768;SDS011;28423;60.010;30.406;2022-07-05T15:02:13;8.90;;;3.05;;
42768;SDS011;28423;60.010;30.406;2022-07-05T15:04:40;5.75;;;2.70;;
42768;SDS011;28423;60.010;30.406;2022-07-05T15:07:06;5.72;;;3.03;;
42768;SDS011;28423;60.010;30.406;2022-07-05T15:09:31;5.82;;;2.72;;
42768;SDS011;28423;60.010;30.406;2022-07-05T15:11:57;17.00;;;2.65;;
42768;SDS011;28423;60.010;30.406;2022-07-05T15:14:23;7.43;;;2.40;;
42768;SDS011;28423;60.010;30.406;2022-07-05T15:19:39;5.00;;;2.50;;